FRS21N EDAH-EDHL
Flight info
| Callsign | FRS21N |
|---|---|
| Flight time | 1h 23m |
| Altitude | 12000 |
| Route | MASOR1E MASOR TAGOB |
| Aircraft | DA40/L-SDGRY/S |
Departure
| Time | 2026-04-18 07:07 |
|---|---|
| Airport | Heringsdorf Airport (EDAH) |
Arrival
| Time | 2026-04-18 08:31 |
|---|---|
| Airport | Lübeck Blankensee Airport (EDHL) |
| Time | Latitude | Longitude | Altitude | Speed | Heading |
|---|---|---|---|---|---|
| 2026-04-18 06:46 | 53.87753 | 14.14440 | 72 ft | 0 kts | 185° |
| 2026-04-18 07:03 | 53.87751 | 14.14443 | 72 ft | 1 kts | 103° |
| 2026-04-18 07:04 | 53.87771 | 14.14431 | 71 ft | 7 kts | 326° |
| 2026-04-18 07:04 | 53.87799 | 14.14361 | 71 ft | 10 kts | 299° |
| 2026-04-18 07:04 | 53.87836 | 14.14252 | 73 ft | 10 kts | 299° |
| 2026-04-18 07:04 | 53.87869 | 14.14153 | 70 ft | 12 kts | 295° |
| 2026-04-18 07:05 | 53.87916 | 14.14016 | 68 ft | 14 kts | 307° |
| 2026-04-18 07:05 | 53.87950 | 14.13915 | 69 ft | 7 kts | 307° |
| 2026-04-18 07:05 | 53.87983 | 14.13891 | 73 ft | 8 kts | 359° |
| 2026-04-18 07:05 | 53.88056 | 14.13892 | 72 ft | 10 kts | 6° |
| 2026-04-18 07:06 | 53.88095 | 14.13918 | 73 ft | 4 kts | 88° |
| 2026-04-18 07:06 | 53.88089 | 14.13942 | 70 ft | 0 kts | 108° |
| 2026-04-18 07:06 | 53.88047 | 14.14175 | 67 ft | 46 kts | 104° |
| 2026-04-18 07:06 | 53.87935 | 14.14887 | 127 ft | 70 kts | 105° |
| 2026-04-18 07:07 | 53.87820 | 14.15716 | 242 ft | 75 kts | 105° |
| 2026-04-18 07:07 | 53.87706 | 14.16560 | 411 ft | 74 kts | 103° |
| 2026-04-18 07:07 | 53.87534 | 14.17407 | 581 ft | 77 kts | 122° |
| 2026-04-18 07:07 | 53.87081 | 14.17838 | 836 ft | 79 kts | 181° |
| 2026-04-18 07:08 | 53.86749 | 14.17178 | 1120 ft | 84 kts | 257° |
| 2026-04-18 07:08 | 53.86734 | 14.16150 | 1348 ft | 89 kts | 266° |
| 2026-04-18 07:08 | 53.86761 | 14.15112 | 1609 ft | 87 kts | 265° |
| 2026-04-18 07:08 | 53.86728 | 14.14090 | 1821 ft | 89 kts | 258° |
| 2026-04-18 07:09 | 53.86613 | 14.13108 | 2065 ft | 88 kts | 255° |
| 2026-04-18 07:09 | 53.86510 | 14.12074 | 2300 ft | 86 kts | 256° |
| 2026-04-18 07:09 | 53.86397 | 14.11023 | 2453 ft | 95 kts | 257° |
| 2026-04-18 07:09 | 53.86309 | 14.09851 | 2502 ft | 106 kts | 259° |
| 2026-04-18 07:10 | 53.86208 | 14.08561 | 2505 ft | 113 kts | 259° |
| 2026-04-18 07:10 | 53.86100 | 14.07214 | 2508 ft | 118 kts | 259° |
| 2026-04-18 07:10 | 53.85977 | 14.05826 | 2495 ft | 119 kts | 259° |
| 2026-04-18 07:10 | 53.85846 | 14.04430 | 2495 ft | 121 kts | 259° |
| 2026-04-18 07:11 | 53.85714 | 14.03027 | 2493 ft | 121 kts | 259° |
| 2026-04-18 07:11 | 53.85586 | 14.01626 | 2493 ft | 121 kts | 259° |
| 2026-04-18 07:11 | 53.85472 | 14.00213 | 2494 ft | 121 kts | 260° |
| 2026-04-18 07:11 | 53.85361 | 13.98801 | 2505 ft | 122 kts | 259° |
| 2026-04-18 07:12 | 53.85248 | 13.97350 | 2494 ft | 126 kts | 260° |
| 2026-04-18 07:12 | 53.85129 | 13.95897 | 2489 ft | 123 kts | 260° |
| 2026-04-18 07:12 | 53.85012 | 13.94494 | 2486 ft | 116 kts | 260° |
| 2026-04-18 07:12 | 53.84899 | 13.93165 | 2485 ft | 112 kts | 260° |
| 2026-04-18 07:13 | 53.84787 | 13.91866 | 2484 ft | 113 kts | 260° |
| 2026-04-18 07:13 | 53.84675 | 13.90551 | 2493 ft | 114 kts | 260° |
| 2026-04-18 07:13 | 53.84576 | 13.89200 | 2493 ft | 118 kts | 267° |
| 2026-04-18 07:13 | 53.84632 | 13.87809 | 2491 ft | 119 kts | 274° |
| 2026-04-18 07:14 | 53.84709 | 13.86432 | 2482 ft | 114 kts | 274° |
| 2026-04-18 07:14 | 53.84786 | 13.85099 | 2483 ft | 113 kts | 274° |
| 2026-04-18 07:14 | 53.84863 | 13.83783 | 2483 ft | 111 kts | 274° |
| 2026-04-18 07:14 | 53.84945 | 13.82489 | 2483 ft | 110 kts | 273° |
| 2026-04-18 07:15 | 53.85040 | 13.81201 | 2485 ft | 111 kts | 276° |
| 2026-04-18 07:15 | 53.85173 | 13.79915 | 2484 ft | 111 kts | 277° |
| 2026-04-18 07:15 | 53.85305 | 13.78626 | 2486 ft | 111 kts | 277° |
| 2026-04-18 07:15 | 53.85427 | 13.77354 | 2494 ft | 111 kts | 278° |
| 2026-04-18 07:16 | 53.85699 | 13.76091 | 2491 ft | 115 kts | 293° |
| 2026-04-18 07:16 | 53.86044 | 13.74860 | 2483 ft | 115 kts | 293° |
| 2026-04-18 07:16 | 53.86381 | 13.73643 | 2486 ft | 114 kts | 293° |
| 2026-04-18 07:16 | 53.86711 | 13.72428 | 2485 ft | 114 kts | 292° |
| 2026-04-18 07:17 | 53.87057 | 13.71212 | 2480 ft | 114 kts | 293° |
| 2026-04-18 07:17 | 53.87399 | 13.70007 | 2477 ft | 112 kts | 292° |
| 2026-04-18 07:17 | 53.87750 | 13.68812 | 2477 ft | 114 kts | 293° |
| 2026-04-18 07:17 | 53.88109 | 13.67604 | 2481 ft | 117 kts | 293° |
| 2026-04-18 07:18 | 53.88480 | 13.66348 | 2479 ft | 120 kts | 293° |
| 2026-04-18 07:18 | 53.88841 | 13.65093 | 2467 ft | 119 kts | 293° |
| 2026-04-18 07:18 | 53.89205 | 13.63852 | 2479 ft | 119 kts | 294° |
| 2026-04-18 07:18 | 53.89561 | 13.62588 | 2479 ft | 117 kts | 292° |
| 2026-04-18 07:19 | 53.89917 | 13.61355 | 2478 ft | 117 kts | 294° |
| 2026-04-18 07:19 | 53.90247 | 13.60113 | 2482 ft | 115 kts | 291° |
| 2026-04-18 07:19 | 53.90569 | 13.58858 | 2489 ft | 116 kts | 290° |
| 2026-04-18 07:19 | 53.90898 | 13.57609 | 2491 ft | 115 kts | 291° |
| 2026-04-18 07:20 | 53.91230 | 13.56368 | 2477 ft | 115 kts | 291° |
| 2026-04-18 07:20 | 53.91568 | 13.55128 | 2495 ft | 116 kts | 292° |
| 2026-04-18 07:20 | 53.91894 | 13.53870 | 2479 ft | 116 kts | 291° |
| 2026-04-18 07:20 | 53.92211 | 13.52620 | 2479 ft | 115 kts | 291° |
| 2026-04-18 07:21 | 53.92535 | 13.51378 | 2485 ft | 115 kts | 291° |
| 2026-04-18 07:21 | 53.92856 | 13.50147 | 2471 ft | 114 kts | 290° |
| 2026-04-18 07:21 | 53.93175 | 13.48899 | 2483 ft | 118 kts | 292° |
| 2026-04-18 07:21 | 53.93497 | 13.47636 | 2475 ft | 114 kts | 288° |
| 2026-04-18 07:22 | 53.93656 | 13.46325 | 2477 ft | 114 kts | 275° |
| 2026-04-18 07:22 | 53.93746 | 13.44987 | 2483 ft | 115 kts | 274° |
| 2026-04-18 07:22 | 53.93829 | 13.43637 | 2482 ft | 116 kts | 274° |
| 2026-04-18 07:22 | 53.93910 | 13.42272 | 2478 ft | 116 kts | 272° |
| 2026-04-18 07:23 | 53.93987 | 13.40928 | 2468 ft | 112 kts | 274° |
| 2026-04-18 07:23 | 53.94073 | 13.39642 | 2475 ft | 109 kts | 274° |
| 2026-04-18 07:23 | 53.94173 | 13.38352 | 2483 ft | 112 kts | 274° |
| 2026-04-18 07:23 | 53.94276 | 13.37029 | 2470 ft | 111 kts | 274° |
| 2026-04-18 07:24 | 53.94384 | 13.35711 | 2473 ft | 115 kts | 275° |
| 2026-04-18 07:24 | 53.94489 | 13.34412 | 2482 ft | 108 kts | 274° |
| 2026-04-18 07:24 | 53.94588 | 13.33158 | 2486 ft | 110 kts | 273° |
| 2026-04-18 07:24 | 53.94697 | 13.31869 | 2471 ft | 109 kts | 274° |
| 2026-04-18 07:25 | 53.94813 | 13.30570 | 2463 ft | 114 kts | 274° |
| 2026-04-18 07:25 | 53.94914 | 13.29228 | 2470 ft | 116 kts | 275° |
| 2026-04-18 07:25 | 53.95001 | 13.27851 | 2469 ft | 118 kts | 274° |
| 2026-04-18 07:25 | 53.95094 | 13.26458 | 2467 ft | 119 kts | 273° |
| 2026-04-18 07:26 | 53.95184 | 13.25070 | 2478 ft | 115 kts | 273° |
| 2026-04-18 07:26 | 53.95292 | 13.23699 | 2482 ft | 116 kts | 275° |
| 2026-04-18 07:26 | 53.95380 | 13.22354 | 2475 ft | 114 kts | 274° |
| 2026-04-18 07:26 | 53.95435 | 13.21472 | 2472 ft | 112 kts | 274° |
| 2026-04-18 07:27 | 53.95517 | 13.20159 | 2473 ft | 111 kts | 274° |
| 2026-04-18 07:27 | 53.95611 | 13.18844 | 2468 ft | 113 kts | 274° |
| 2026-04-18 07:27 | 53.95697 | 13.17524 | 2463 ft | 114 kts | 273° |
| 2026-04-18 07:27 | 53.95815 | 13.15724 | 2465 ft | 119 kts | 265° |
| 2026-04-18 07:28 | 53.95714 | 13.14349 | 2462 ft | 115 kts | 249° |
| 2026-04-18 07:28 | 53.95453 | 13.13575 | 2477 ft | 111 kts | 231° |
| 2026-04-18 07:28 | 53.94983 | 13.12546 | 2468 ft | 113 kts | 229° |
| 2026-04-18 07:28 | 53.94484 | 13.11509 | 2463 ft | 114 kts | 229° |
| 2026-04-18 07:29 | 53.93992 | 13.10482 | 2471 ft | 113 kts | 229° |
| 2026-04-18 07:29 | 53.93501 | 13.09429 | 2463 ft | 114 kts | 229° |
| 2026-04-18 07:29 | 53.93089 | 13.08294 | 2468 ft | 113 kts | 241° |
| 2026-04-18 07:29 | 53.92807 | 13.07051 | 2456 ft | 111 kts | 246° |
| 2026-04-18 07:30 | 53.92560 | 13.05828 | 2456 ft | 109 kts | 246° |
| 2026-04-18 07:30 | 53.92319 | 13.04604 | 2459 ft | 110 kts | 246° |
| 2026-04-18 07:30 | 53.92071 | 13.03358 | 2460 ft | 111 kts | 250° |
| 2026-04-18 07:30 | 53.91806 | 13.02116 | 2459 ft | 112 kts | 246° |
| 2026-04-18 07:31 | 53.91494 | 13.00933 | 2458 ft | 109 kts | 240° |
| 2026-04-18 07:31 | 53.91164 | 12.99783 | 2463 ft | 109 kts | 239° |
| 2026-04-18 07:31 | 53.90822 | 12.98605 | 2463 ft | 113 kts | 240° |
| 2026-04-18 07:31 | 53.90433 | 12.97442 | 2461 ft | 114 kts | 236° |
| 2026-04-18 07:32 | 53.90026 | 12.96296 | 2451 ft | 115 kts | 237° |
| 2026-04-18 07:32 | 53.89624 | 12.95161 | 2456 ft | 111 kts | 236° |
| 2026-04-18 07:32 | 53.89234 | 12.94052 | 2455 ft | 108 kts | 237° |
| 2026-04-18 07:32 | 53.88853 | 12.92962 | 2457 ft | 107 kts | 236° |
| 2026-04-18 07:33 | 53.88473 | 12.91872 | 2455 ft | 107 kts | 237° |
| 2026-04-18 07:33 | 53.88095 | 12.90783 | 2457 ft | 107 kts | 236° |
| 2026-04-18 07:33 | 53.87721 | 12.89696 | 2450 ft | 106 kts | 236° |
| 2026-04-18 07:33 | 53.87346 | 12.88618 | 2456 ft | 106 kts | 237° |
| 2026-04-18 07:34 | 53.86969 | 12.87531 | 2457 ft | 107 kts | 236° |
| 2026-04-18 07:34 | 53.86588 | 12.86440 | 2448 ft | 107 kts | 237° |
| 2026-04-18 07:34 | 53.86218 | 12.85343 | 2463 ft | 108 kts | 237° |
| 2026-04-18 07:34 | 53.85834 | 12.84190 | 2458 ft | 116 kts | 237° |
| 2026-04-18 07:35 | 53.85431 | 12.82999 | 2444 ft | 114 kts | 237° |
| 2026-04-18 07:35 | 53.85040 | 12.81868 | 2446 ft | 109 kts | 237° |
| 2026-04-18 07:35 | 53.84661 | 12.80788 | 2421 ft | 108 kts | 237° |
| 2026-04-18 07:35 | 53.84260 | 12.79652 | 2353 ft | 116 kts | 237° |
| 2026-04-18 07:36 | 53.83842 | 12.78480 | 2280 ft | 116 kts | 237° |
| 2026-04-18 07:36 | 53.83424 | 12.77286 | 2198 ft | 119 kts | 236° |
| 2026-04-18 07:36 | 53.83027 | 12.76054 | 2142 ft | 116 kts | 237° |
| 2026-04-18 07:36 | 53.82654 | 12.74893 | 2146 ft | 110 kts | 238° |
| 2026-04-18 07:37 | 53.82283 | 12.73776 | 2154 ft | 109 kts | 237° |
| 2026-04-18 07:37 | 53.81928 | 12.72631 | 2163 ft | 111 kts | 236° |
| 2026-04-18 07:37 | 53.81557 | 12.71487 | 2150 ft | 110 kts | 236° |
| 2026-04-18 07:37 | 53.81180 | 12.70355 | 2148 ft | 110 kts | 237° |
| 2026-04-18 07:38 | 53.80781 | 12.69217 | 2154 ft | 115 kts | 235° |
| 2026-04-18 07:38 | 53.80394 | 12.68050 | 2140 ft | 111 kts | 237° |
| 2026-04-18 07:38 | 53.80029 | 12.66957 | 2194 ft | 104 kts | 236° |
| 2026-04-18 07:38 | 53.79671 | 12.65889 | 2208 ft | 107 kts | 237° |
| 2026-04-18 07:39 | 53.79286 | 12.64772 | 2198 ft | 111 kts | 236° |
| 2026-04-18 07:39 | 53.78904 | 12.63670 | 2209 ft | 109 kts | 234° |
| 2026-04-18 07:39 | 53.78540 | 12.62546 | 2199 ft | 108 kts | 237° |
| 2026-04-18 07:39 | 53.78191 | 12.61431 | 2200 ft | 107 kts | 236° |
| 2026-04-18 07:40 | 53.77857 | 12.60318 | 2195 ft | 105 kts | 237° |
| 2026-04-18 07:40 | 53.77522 | 12.59229 | 2201 ft | 105 kts | 236° |
| 2026-04-18 07:40 | 53.77181 | 12.58129 | 2200 ft | 105 kts | 236° |
| 2026-04-18 07:40 | 53.76837 | 12.57024 | 2200 ft | 109 kts | 238° |
| 2026-04-18 07:41 | 53.76581 | 12.55805 | 2190 ft | 110 kts | 250° |
| 2026-04-18 07:41 | 53.76441 | 12.54543 | 2206 ft | 111 kts | 253° |
| 2026-04-18 07:41 | 53.76297 | 12.53216 | 2185 ft | 114 kts | 254° |
| 2026-04-18 07:41 | 53.76154 | 12.51923 | 2189 ft | 110 kts | 253° |
| 2026-04-18 07:42 | 53.76023 | 12.50656 | 2187 ft | 109 kts | 254° |
| 2026-04-18 07:42 | 53.75907 | 12.49401 | 2197 ft | 107 kts | 253° |
| 2026-04-18 07:42 | 53.75772 | 12.48158 | 2207 ft | 110 kts | 253° |
| 2026-04-18 07:42 | 53.75626 | 12.46862 | 2197 ft | 111 kts | 253° |
| 2026-04-18 07:43 | 53.75477 | 12.45553 | 2197 ft | 116 kts | 253° |
| 2026-04-18 07:43 | 53.75328 | 12.44188 | 2181 ft | 118 kts | 253° |
| 2026-04-18 07:43 | 53.75169 | 12.42826 | 2197 ft | 119 kts | 253° |
| 2026-04-18 07:43 | 53.75011 | 12.41490 | 2210 ft | 114 kts | 252° |
| 2026-04-18 07:44 | 53.74859 | 12.40139 | 2198 ft | 118 kts | 253° |
| 2026-04-18 07:44 | 53.74706 | 12.38764 | 2191 ft | 119 kts | 254° |
| 2026-04-18 07:44 | 53.74552 | 12.37427 | 2186 ft | 116 kts | 254° |
| 2026-04-18 07:44 | 53.74405 | 12.36117 | 2202 ft | 113 kts | 256° |
| 2026-04-18 07:45 | 53.74263 | 12.34795 | 2195 ft | 114 kts | 253° |
| 2026-04-18 07:45 | 53.74113 | 12.33470 | 2197 ft | 116 kts | 253° |
| 2026-04-18 07:45 | 53.73957 | 12.32133 | 2201 ft | 116 kts | 252° |
| 2026-04-18 07:45 | 53.73799 | 12.30797 | 2207 ft | 117 kts | 252° |
| 2026-04-18 07:46 | 53.73648 | 12.29433 | 2188 ft | 117 kts | 253° |
| 2026-04-18 07:46 | 53.73499 | 12.28112 | 2187 ft | 112 kts | 253° |
| 2026-04-18 07:46 | 53.73360 | 12.26816 | 2181 ft | 113 kts | 254° |
| 2026-04-18 07:46 | 53.73228 | 12.25546 | 2192 ft | 108 kts | 253° |
| 2026-04-18 07:47 | 53.73087 | 12.24293 | 2193 ft | 109 kts | 253° |
| 2026-04-18 07:47 | 53.72944 | 12.23033 | 2188 ft | 108 kts | 253° |
| 2026-04-18 07:47 | 53.72809 | 12.21783 | 2191 ft | 108 kts | 253° |
| 2026-04-18 07:47 | 53.72671 | 12.20528 | 2193 ft | 109 kts | 253° |
| 2026-04-18 07:48 | 53.72537 | 12.19272 | 2191 ft | 108 kts | 253° |
| 2026-04-18 07:48 | 53.72408 | 12.18026 | 2184 ft | 109 kts | 254° |
| 2026-04-18 07:48 | 53.72274 | 12.16771 | 2185 ft | 108 kts | 253° |
| 2026-04-18 07:48 | 53.72141 | 12.15523 | 2179 ft | 108 kts | 253° |
| 2026-04-18 07:49 | 53.72008 | 12.14289 | 2187 ft | 107 kts | 253° |
| 2026-04-18 07:49 | 53.71861 | 12.13040 | 2177 ft | 109 kts | 253° |
| 2026-04-18 07:49 | 53.71838 | 12.11737 | 2184 ft | 113 kts | 269° |
| 2026-04-18 07:49 | 53.72053 | 12.10443 | 2181 ft | 119 kts | 294° |
| 2026-04-18 07:50 | 53.72520 | 12.09295 | 2181 ft | 119 kts | 308° |
| 2026-04-18 07:50 | 53.73105 | 12.08305 | 2184 ft | 120 kts | 312° |
| 2026-04-18 07:50 | 53.73691 | 12.07340 | 2187 ft | 119 kts | 312° |
| 2026-04-18 07:50 | 53.74289 | 12.06348 | 2195 ft | 123 kts | 311° |
| 2026-04-18 07:51 | 53.74918 | 12.05346 | 2195 ft | 125 kts | 313° |
| 2026-04-18 07:51 | 53.75556 | 12.04333 | 2194 ft | 125 kts | 313° |
| 2026-04-18 07:51 | 53.76197 | 12.03315 | 2175 ft | 125 kts | 313° |
| 2026-04-18 07:51 | 53.76825 | 12.02320 | 2189 ft | 125 kts | 312° |
| 2026-04-18 07:52 | 53.77465 | 12.01293 | 2180 ft | 128 kts | 313° |
| 2026-04-18 07:52 | 53.78104 | 12.00275 | 2172 ft | 124 kts | 313° |
| 2026-04-18 07:52 | 53.78726 | 11.99286 | 2180 ft | 124 kts | 313° |
| 2026-04-18 07:52 | 53.79350 | 11.98287 | 2173 ft | 123 kts | 312° |
| 2026-04-18 07:53 | 53.79960 | 11.97312 | 2171 ft | 121 kts | 312° |
| 2026-04-18 07:53 | 53.80574 | 11.96329 | 2172 ft | 121 kts | 312° |
| 2026-04-18 07:53 | 53.81183 | 11.95347 | 2170 ft | 121 kts | 312° |
| 2026-04-18 07:53 | 53.81789 | 11.94368 | 2171 ft | 120 kts | 312° |
| 2026-04-18 07:54 | 53.82396 | 11.93388 | 2171 ft | 120 kts | 312° |
| 2026-04-18 07:54 | 53.83010 | 11.92398 | 2177 ft | 122 kts | 313° |
| 2026-04-18 07:54 | 53.83635 | 11.91383 | 2174 ft | 125 kts | 313° |
| 2026-04-18 07:54 | 53.84257 | 11.90374 | 2174 ft | 122 kts | 312° |
| 2026-04-18 07:55 | 53.84868 | 11.89379 | 2173 ft | 121 kts | 312° |
| 2026-04-18 07:55 | 53.85460 | 11.88402 | 2173 ft | 120 kts | 312° |
| 2026-04-18 07:55 | 53.86055 | 11.87414 | 2174 ft | 120 kts | 312° |
| 2026-04-18 07:55 | 53.86663 | 11.86405 | 2174 ft | 125 kts | 313° |
| 2026-04-18 07:56 | 53.87279 | 11.85380 | 2174 ft | 122 kts | 312° |
| 2026-04-18 07:56 | 53.87880 | 11.84385 | 2171 ft | 119 kts | 312° |
| 2026-04-18 07:56 | 53.88474 | 11.83406 | 2172 ft | 119 kts | 312° |
| 2026-04-18 07:56 | 53.89075 | 11.82417 | 2185 ft | 123 kts | 312° |
| 2026-04-18 07:57 | 53.89692 | 11.81403 | 2175 ft | 122 kts | 312° |
| 2026-04-18 07:57 | 53.90303 | 11.80410 | 2171 ft | 121 kts | 312° |
| 2026-04-18 07:57 | 53.90915 | 11.79414 | 2167 ft | 123 kts | 313° |
| 2026-04-18 07:57 | 53.91519 | 11.78429 | 2178 ft | 122 kts | 312° |
| 2026-04-18 07:58 | 53.92747 | 11.76400 | 2181 ft | 126 kts | 313° |
| 2026-04-18 07:58 | 53.93371 | 11.75348 | 2182 ft | 127 kts | 313° |
| 2026-04-18 07:58 | 53.93995 | 11.74295 | 2182 ft | 125 kts | 313° |
| 2026-04-18 07:59 | 53.94610 | 11.73272 | 2173 ft | 123 kts | 313° |
| 2026-04-18 07:59 | 53.95230 | 11.72240 | 2178 ft | 126 kts | 313° |
| 2026-04-18 07:59 | 53.95847 | 11.71215 | 2173 ft | 122 kts | 312° |
| 2026-04-18 07:59 | 53.96449 | 11.70208 | 2172 ft | 120 kts | 312° |
| 2026-04-18 08:00 | 53.97054 | 11.69198 | 2177 ft | 124 kts | 312° |
| 2026-04-18 08:00 | 53.97651 | 11.68153 | 2181 ft | 123 kts | 302° |
| 2026-04-18 08:00 | 53.97970 | 11.66850 | 2191 ft | 117 kts | 279° |
| 2026-04-18 08:00 | 53.98115 | 11.65487 | 2180 ft | 117 kts | 274° |
| 2026-04-18 08:01 | 53.98238 | 11.64116 | 2157 ft | 120 kts | 274° |
| 2026-04-18 08:01 | 53.98379 | 11.62739 | 2161 ft | 121 kts | 273° |
| 2026-04-18 08:01 | 53.98527 | 11.61357 | 2174 ft | 118 kts | 273° |
| 2026-04-18 08:01 | 53.98676 | 11.59950 | 2158 ft | 122 kts | 273° |
| 2026-04-18 08:02 | 53.98826 | 11.58529 | 2151 ft | 124 kts | 274° |
| 2026-04-18 08:02 | 53.98973 | 11.57072 | 2143 ft | 126 kts | 273° |
| 2026-04-18 08:02 | 53.99123 | 11.55646 | 2150 ft | 124 kts | 274° |
| 2026-04-18 08:02 | 53.99272 | 11.54265 | 2172 ft | 116 kts | 273° |
| 2026-04-18 08:03 | 53.99418 | 11.52936 | 2177 ft | 116 kts | 274° |
| 2026-04-18 08:03 | 53.99349 | 11.51598 | 2164 ft | 115 kts | 244° |
| 2026-04-18 08:03 | 53.99073 | 11.50325 | 2160 ft | 114 kts | 242° |
| 2026-04-18 08:03 | 53.98800 | 11.49073 | 2163 ft | 114 kts | 243° |
| 2026-04-18 08:04 | 53.98527 | 11.47828 | 2160 ft | 111 kts | 241° |
| 2026-04-18 08:04 | 53.98140 | 11.46720 | 2164 ft | 110 kts | 229° |
| 2026-04-18 08:04 | 53.97701 | 11.45652 | 2157 ft | 109 kts | 228° |
| 2026-04-18 08:04 | 53.97271 | 11.44603 | 2175 ft | 109 kts | 228° |
| 2026-04-18 08:05 | 53.96854 | 11.43505 | 2158 ft | 114 kts | 240° |
| 2026-04-18 08:05 | 53.96742 | 11.42157 | 2174 ft | 118 kts | 259° |
| 2026-04-18 08:05 | 53.96690 | 11.40743 | 2173 ft | 121 kts | 259° |
| 2026-04-18 08:05 | 53.96639 | 11.39306 | 2171 ft | 123 kts | 259° |
| 2026-04-18 08:06 | 53.96587 | 11.37863 | 2162 ft | 120 kts | 259° |
| 2026-04-18 08:06 | 53.96540 | 11.36467 | 2163 ft | 117 kts | 259° |
| 2026-04-18 08:06 | 53.96494 | 11.35095 | 2163 ft | 116 kts | 259° |
| 2026-04-18 08:06 | 53.96449 | 11.33732 | 2161 ft | 115 kts | 259° |
| 2026-04-18 08:07 | 53.96405 | 11.32378 | 2161 ft | 115 kts | 259° |
| 2026-04-18 08:07 | 53.96399 | 11.31025 | 2114 ft | 120 kts | 267° |
| 2026-04-18 08:07 | 53.96557 | 11.29606 | 2031 ft | 124 kts | 274° |
| 2026-04-18 08:07 | 53.96884 | 11.28208 | 1925 ft | 130 kts | 292° |
| 2026-04-18 08:08 | 53.97315 | 11.26840 | 1824 ft | 133 kts | 292° |
| 2026-04-18 08:08 | 53.97752 | 11.25454 | 1730 ft | 134 kts | 292° |
| 2026-04-18 08:08 | 53.98160 | 11.24053 | 1663 ft | 127 kts | 281° |
| 2026-04-18 08:08 | 53.98173 | 11.22634 | 1671 ft | 119 kts | 255° |
| 2026-04-18 08:09 | 53.98044 | 11.21261 | 1666 ft | 117 kts | 254° |
| 2026-04-18 08:09 | 53.97919 | 11.19916 | 1671 ft | 114 kts | 253° |
| 2026-04-18 08:09 | 53.97789 | 11.18558 | 1672 ft | 118 kts | 253° |
| 2026-04-18 08:09 | 53.97660 | 11.17196 | 1662 ft | 115 kts | 253° |
| 2026-04-18 08:10 | 53.97537 | 11.15859 | 1666 ft | 117 kts | 253° |
| 2026-04-18 08:10 | 53.97419 | 11.14526 | 1662 ft | 111 kts | 253° |
| 2026-04-18 08:10 | 53.97313 | 11.13241 | 1662 ft | 109 kts | 253° |
| 2026-04-18 08:10 | 53.97202 | 11.11981 | 1664 ft | 108 kts | 252° |
| 2026-04-18 08:11 | 53.97098 | 11.10713 | 1657 ft | 107 kts | 253° |
| 2026-04-18 08:11 | 53.96991 | 11.09460 | 1670 ft | 107 kts | 256° |
| 2026-04-18 08:11 | 53.96850 | 11.08209 | 1672 ft | 108 kts | 253° |
| 2026-04-18 08:11 | 53.96709 | 11.06945 | 1672 ft | 109 kts | 253° |
| 2026-04-18 08:12 | 53.96562 | 11.05684 | 1668 ft | 109 kts | 253° |
| 2026-04-18 08:12 | 53.96438 | 11.04392 | 1669 ft | 113 kts | 256° |
| 2026-04-18 08:12 | 53.96326 | 11.03080 | 1662 ft | 111 kts | 256° |
| 2026-04-18 08:12 | 53.96219 | 11.01786 | 1670 ft | 112 kts | 257° |
| 2026-04-18 08:13 | 53.96095 | 11.00475 | 1670 ft | 113 kts | 251° |
| 2026-04-18 08:13 | 53.95875 | 10.99225 | 1660 ft | 107 kts | 247° |
| 2026-04-18 08:13 | 53.95645 | 10.98021 | 1671 ft | 109 kts | 248° |
| 2026-04-18 08:13 | 53.95409 | 10.96811 | 1671 ft | 109 kts | 247° |
| 2026-04-18 08:14 | 53.95176 | 10.95577 | 1654 ft | 108 kts | 247° |
| 2026-04-18 08:14 | 53.94950 | 10.94347 | 1665 ft | 110 kts | 246° |
| 2026-04-18 08:14 | 53.94720 | 10.93096 | 1660 ft | 110 kts | 247° |
| 2026-04-18 08:14 | 53.94493 | 10.91872 | 1665 ft | 109 kts | 247° |
| 2026-04-18 08:15 | 53.94248 | 10.90673 | 1659 ft | 106 kts | 243° |
| 2026-04-18 08:15 | 53.93983 | 10.89513 | 1662 ft | 105 kts | 243° |
| 2026-04-18 08:15 | 53.93808 | 10.88738 | 1660 ft | 106 kts | 243° |
| 2026-04-18 08:15 | 53.93542 | 10.87559 | 1663 ft | 107 kts | 243° |
| 2026-04-18 08:16 | 53.93268 | 10.86385 | 1662 ft | 106 kts | 243° |
| 2026-04-18 08:16 | 53.93000 | 10.85211 | 1668 ft | 108 kts | 243° |
| 2026-04-18 08:16 | 53.92732 | 10.84016 | 1658 ft | 106 kts | 243° |
| 2026-04-18 08:16 | 53.92438 | 10.82889 | 1658 ft | 104 kts | 240° |
| 2026-04-18 08:17 | 53.92122 | 10.81816 | 1668 ft | 102 kts | 238° |
| 2026-04-18 08:17 | 53.91806 | 10.80731 | 1661 ft | 102 kts | 238° |
| 2026-04-18 08:17 | 53.91486 | 10.79648 | 1665 ft | 103 kts | 238° |
| 2026-04-18 08:17 | 53.91174 | 10.78555 | 1663 ft | 103 kts | 238° |
| 2026-04-18 08:18 | 53.90853 | 10.77479 | 1666 ft | 103 kts | 238° |
| 2026-04-18 08:18 | 53.90512 | 10.76368 | 1656 ft | 108 kts | 238° |
| 2026-04-18 08:18 | 53.90184 | 10.75285 | 1636 ft | 96 kts | 234° |
| 2026-04-18 08:18 | 53.89857 | 10.74374 | 1605 ft | 83 kts | 226° |
| 2026-04-18 08:19 | 53.89475 | 10.73662 | 1620 ft | 83 kts | 221° |
| 2026-04-18 08:19 | 53.89061 | 10.72979 | 1662 ft | 84 kts | 217° |
| 2026-04-18 08:19 | 53.88613 | 10.72382 | 1717 ft | 79 kts | 213° |
| 2026-04-18 08:19 | 53.88161 | 10.71831 | 1729 ft | 81 kts | 211° |
| 2026-04-18 08:20 | 53.87675 | 10.71344 | 1768 ft | 80 kts | 205° |
| 2026-04-18 08:20 | 53.87161 | 10.71030 | 1819 ft | 82 kts | 192° |
| 2026-04-18 08:20 | 53.86593 | 10.70837 | 1811 ft | 83 kts | 196° |
| 2026-04-18 08:20 | 53.86068 | 10.70455 | 1801 ft | 83 kts | 208° |
| 2026-04-18 08:21 | 53.85557 | 10.70018 | 1821 ft | 81 kts | 204° |
| 2026-04-18 08:21 | 53.85067 | 10.69546 | 1873 ft | 82 kts | 210° |
| 2026-04-18 08:21 | 53.85037 | 10.69512 | 1873 ft | 82 kts | 211° |
| 2026-04-18 08:23 | 53.84909 | 10.69349 | 1874 ft | 83 kts | 215° |
| 2026-04-18 08:23 | 53.84545 | 10.68569 | 1885 ft | 83 kts | 237° |
| 2026-04-18 08:24 | 53.84302 | 10.67685 | 1911 ft | 82 kts | 239° |
| 2026-04-18 08:24 | 53.84077 | 10.66838 | 1935 ft | 82 kts | 252° |
| 2026-04-18 08:24 | 53.84329 | 10.65930 | 1994 ft | 100 kts | 326° |
| 2026-04-18 08:24 | 53.84986 | 10.66056 | 2021 ft | 101 kts | 42° |
| 2026-04-18 08:25 | 53.85256 | 10.67078 | 1987 ft | 94 kts | 99° |
| 2026-04-18 08:25 | 53.85242 | 10.67379 | 2004 ft | 91 kts | 101° |
| 2026-04-18 08:25 | 53.85191 | 10.68448 | 1918 ft | 99 kts | 103° |
| 2026-04-18 08:25 | 53.84972 | 10.69470 | 1988 ft | 89 kts | 126° |
| 2026-04-18 08:26 | 53.84644 | 10.70369 | 1994 ft | 89 kts | 129° |
| 2026-04-18 08:26 | 53.84490 | 10.71434 | 1783 ft | 99 kts | 98° |
| 2026-04-18 08:26 | 53.84445 | 10.72571 | 1553 ft | 89 kts | 123° |
| 2026-04-18 08:26 | 53.83964 | 10.72769 | 1391 ft | 79 kts | 190° |
| 2026-04-18 08:27 | 53.83371 | 10.72694 | 1101 ft | 84 kts | 183° |
| 2026-04-18 08:27 | 53.82842 | 10.72520 | 1003 ft | 69 kts | 202° |
| 2026-04-18 08:27 | 53.82440 | 10.72022 | 847 ft | 76 kts | 225° |
| 2026-04-18 08:27 | 53.82176 | 10.71244 | 830 ft | 78 kts | 239° |
| 2026-04-18 08:28 | 53.82054 | 10.70341 | 889 ft | 79 kts | 249° |
| 2026-04-18 08:28 | 53.81978 | 10.69408 | 964 ft | 84 kts | 255° |
| 2026-04-18 08:28 | 53.81900 | 10.68441 | 1048 ft | 85 kts | 252° |
| 2026-04-18 08:28 | 53.81909 | 10.67434 | 1211 ft | 79 kts | 260° |
| 2026-04-18 08:29 | 53.81638 | 10.66802 | 1288 ft | 69 kts | 193° |
| 2026-04-18 08:29 | 53.81182 | 10.66840 | 1238 ft | 63 kts | 171° |
| 2026-04-18 08:29 | 53.80746 | 10.66990 | 978 ft | 64 kts | 166° |
| 2026-04-18 08:29 | 53.80346 | 10.67283 | 744 ft | 62 kts | 151° |
| 2026-04-18 08:30 | 53.80037 | 10.67838 | 549 ft | 70 kts | 125° |
| 2026-04-18 08:30 | 53.79961 | 10.68657 | 423 ft | 77 kts | 82° |
| 2026-04-18 08:30 | 53.80082 | 10.69540 | 246 ft | 76 kts | 83° |
| 2026-04-18 08:30 | 53.80248 | 10.70359 | 109 ft | 69 kts | 85° |
| 2026-04-18 08:31 | 53.80373 | 10.71086 | 56 ft | 55 kts | 84° |
| 2026-04-18 08:31 | 53.80447 | 10.71493 | 57 ft | 23 kts | 72° |
| 2026-04-18 08:31 | 53.80497 | 10.71717 | 57 ft | 20 kts | 69° |
| 2026-04-18 08:31 | 53.80538 | 10.71927 | 53 ft | 11 kts | 57° |
| 2026-04-18 08:32 | 53.80582 | 10.71931 | 53 ft | 11 kts | 299° |
| 2026-04-18 08:32 | 53.80608 | 10.71814 | 56 ft | 0 kts | 288° |
| 2026-04-18 08:32 | 53.80622 | 10.71753 | 56 ft | 8 kts | 290° |
| 2026-04-18 08:33 | 53.80649 | 10.71630 | 55 ft | 13 kts | 284° |
| 2026-04-18 08:33 | 53.80644 | 10.71497 | 56 ft | 10 kts | 244° |
| 2026-04-18 08:33 | 53.80623 | 10.71380 | 56 ft | 14 kts | 262° |
| 2026-04-18 08:33 | 53.80595 | 10.71221 | 57 ft | 14 kts | 255° |
| 2026-04-18 08:34 | 53.80569 | 10.71069 | 55 ft | 13 kts | 261° |
| 2026-04-18 08:34 | 53.80534 | 10.70908 | 53 ft | 15 kts | 256° |
| 2026-04-18 08:34 | 53.80506 | 10.70739 | 53 ft | 14 kts | 250° |
| 2026-04-18 08:34 | 53.80472 | 10.70584 | 51 ft | 14 kts | 249° |
| 2026-04-18 08:35 | 53.80455 | 10.70447 | 52 ft | 10 kts | 294° |
| 2026-04-18 08:35 | 53.80504 | 10.70379 | 52 ft | 10 kts | 326° |
| 2026-04-18 08:35 | 53.80553 | 10.70346 | 52 ft | 7 kts | 355° |
| 2026-04-18 08:35 | 53.80594 | 10.70393 | 52 ft | 8 kts | 51° |
| 2026-04-18 08:36 | 53.80594 | 10.70443 | 52 ft | 5 kts | 146° |
| 2026-04-18 08:36 | 53.80562 | 10.70468 | 52 ft | 5 kts | 120° |
| 2026-04-18 08:36 | 53.80572 | 10.70521 | 52 ft | 2 kts | 31° |
| 2026-04-18 08:36 | 53.80576 | 10.70519 | 52 ft | 0 kts | 297° |